Time;durP1;ratioP1;P1;durP2;ratioP2;P2;SDS_P1;SDS_P2;PMS_P1;PMS_P2;Temp;Humidity;BMP_temperature;BMP_pressure;BME280_temperature;BME280_humidity;BME280_pressure;Samples;Min_cycle;Max_cycle;Signal;HPM_P1;HPM_P2
2022/01/04 00:01:08;;;;;;;37.10;29.65;;;;;;;8.43;69.20;99408.47;5013649;28;20022;-86
2022/01/04 00:03:33;;;;;;;43.63;31.30;;;;;;;8.12;69.08;99366.22;5013656;28;20037;-86
2022/01/04 00:05:58;;;;;;;40.75;30.10;;;;;;;7.69;69.44;99285.09;5013721;28;20036;-86
2022/01/04 00:08:26;;;;;;;45.83;34.35;;;;;;;7.52;69.46;99265.91;5013502;28;20156;-86
2022/01/04 00:10:55;;;;;;;43.83;33.30;;;;;;;8.40;69.36;99432.47;5013499;28;20026;-86
2022/01/04 00:13:22;;;;;;;48.33;36.08;;;;;;;8.01;69.69;99358.66;5013310;28;20030;-86
2022/01/04 00:15:48;;;;;;;38.05;27.92;;;;;;;7.74;69.54;99343.25;4995594;28;20022;-87
2022/01/04 00:18:15;;;;;;;44.65;33.35;;;;;;;7.56;69.12;99278.53;5013491;28;20034;-86
2022/01/04 00:20:40;;;;;;;47.70;34.85;;;;;;;7.60;69.67;99277.22;5013312;28;20419;-86
2022/01/04 00:23:06;;;;;;;32.38;25.00;;;;;;;8.41;68.90;99414.88;4995576;28;20026;-86
2022/01/04 00:25:32;;;;;;;30.38;24.35;;;;;;;8.09;68.53;99353.41;5013020;28;20033;-86
2022/01/04 00:27:58;;;;;;;27.05;19.83;;;;;;;8.47;68.05;99412.41;5013004;28;20037;-86
2022/01/04 00:30:28;;;;;;;42.92;31.60;;;;;;;7.81;68.05;99310.88;5013091;28;20026;-86
2022/01/04 00:32:56;;;;;;;39.55;29.63;;;;;;;7.82;67.91;99295.94;4995505;28;20462;-86
2022/01/04 00:35:22;;;;;;;41.03;30.95;;;;;;;8.04;68.32;99326.78;5013027;28;20033;-86
2022/01/04 00:37:47;;;;;;;48.28;34.70;;;;;;;6.19;67.99;99038.69;5013040;28;20030;-86
2022/01/04 00:40:12;;;;;;;45.15;33.72;;;;;;;8.33;67.99;99385.94;5012778;28;20032;-86
2022/01/04 00:42:38;;;;;;;46.67;34.20;;;;;;;7.16;68.06;99226.81;5012841;28;20080;-86
2022/01/04 00:45:04;;;;;;;36.70;27.67;;;;;;;7.75;67.86;99287.06;5012980;28;20048;-85
2022/01/04 00:47:42;;;;;;;19.17;14.32;;;;;;;7.44;67.06;99237.03;4995289;28;20033;-86
2022/01/04 00:50:08;;;;;;;20.20;13.77;;;;;;;8.61;66.69;99392.47;5012996;28;20030;-86
2022/01/04 00:52:33;;;;;;;13.18;9.55;;;;;;;8.71;66.21;99390.47;5012917;28;20561;-86
2022/01/04 00:54:59;;;;;;;8.20;7.07;;;;;;;8.24;65.33;99304.41;5012542;28;20033;-86
2022/01/04 00:57:24;;;;;;;9.65;5.97;;;;;;;8.04;64.83;99247.09;5012602;28;20029;-86
2022/01/04 00:59:50;;;;;;;9.18;5.97;;;;;;;7.94;64.25;99215.72;5012269;28;20049;-86
2022/01/04 01:02:15;;;;;;;5.18;4.35;;;;;;;8.54;63.99;99297.59;5012587;28;20410;-86
2022/01/04 01:04:40;;;;;;;6.70;4.20;;;;;;;9.33;63.10;99421.31;5012375;28;20032;-85
2022/01/04 01:07:06;;;;;;;6.40;4.00;;;;;;;9.42;62.94;99422.91;5012353;28;20026;-86
2022/01/04 01:09:36;;;;;;;5.45;3.70;;;;;;;8.76;62.49;99282.03;5012215;28;20036;-86
2022/01/04 01:12:01;;;;;;;7.18;4.10;;;;;;;9.32;61.97;99357.28;5012399;28;20034;-86
2022/01/04 01:14:27;;;;;;;6.20;4.20;;;;;;;9.63;61.68;99399.41;5012212;28;20450;-86
2022/01/04 01:16:53;;;;;;;7.50;4.20;;;;;;;9.56;60.95;99383.47;5012329;28;20465;-86
2022/01/04 01:19:18;;;;;;;6.95;3.80;;;;;;;8.35;60.84;99191.97;5012330;28;20088;-86
2022/01/04 01:21:43;;;;;;;6.85;4.20;;;;;;;8.68;60.45;99253.94;5012292;28;20449;-86
2022/01/04 01:24:09;;;;;;;6.68;3.65;;;;;;;9.22;60.46;99333.78;5012055;28;20034;-86
2022/01/04 01:26:35;;;;;;;4.18;3.63;;;;;;;9.35;60.04;99345.56;5012084;28;20060;-86
2022/01/04 01:29:00;;;;;;;4.40;3.50;;;;;;;9.44;60.36;99357.69;5012050;28;20037;-86
2022/01/04 01:31:27;;;;;;;7.05;4.28;;;;;;;9.88;59.91;99429.88;5012260;28;20045;-86
2022/01/04 01:33:53;;;;;;;5.55;3.80;;;;;;;9.42;59.80;99354.41;4994164;28;20450;-86
2022/01/04 01:36:18;;;;;;;4.53;3.88;;;;;;;9.13;59.76;99302.41;4994151;28;20084;-86
2022/01/04 01:38:44;;;;;;;5.15;3.92;;;;;;;9.61;59.84;99368.94;5011740;28;20030;-85
2022/01/04 01:41:10;;;;;;;5.13;3.70;;;;;;;9.12;59.57;99298.13;5011895;28;20048;-86
2022/01/04 01:43:35;;;;;;;5.28;4.03;;;;;;;9.74;59.93;99377.09;4994384;28;20564;-84
2022/01/04 01:46:01;;;;;;;5.65;4.38;;;;;;;8.64;60.00;99207.91;5011892;28;20025;-86
2022/01/04 01:48:26;;;;;;;5.68;4.20;;;;;;;9.74;59.88;99382.38;5011944;28;20099;-86
2022/01/04 01:50:52;;;;;;;6.15;4.45;;;;;;;9.93;59.73;99410.91;5011765;28;20041;-86
2022/01/04 01:53:19;;;;;;;6.95;5.15;;;;;;;9.21;60.08;99315.53;5011761;28;20029;-86
2022/01/04 01:55:44;;;;;;;10.00;5.63;;;;;;;9.43;60.01;99345.50;5011627;28;20026;-85
2022/01/04 01:58:10;;;;;;;9.77;5.82;;;;;;;8.09;60.32;99123.81;5011587;28;20084;-86
2022/01/04 02:00:36;;;;;;;13.95;7.55;;;;;;;9.71;60.43;99388.81;5011648;28;20026;-86
2022/01/04 02:03:02;;;;;;;9.75;6.55;;;;;;;9.24;60.62;99333.63;5011422;28;20121;-86
2022/01/04 02:05:29;;;;;;;8.98;6.32;;;;;;;9.26;60.82;99354.50;5011795;28;20037;-86
2022/01/04 02:07:55;;;;;;;10.55;6.88;;;;;;;8.95;60.96;99294.78;5011540;28;20053;-86
2022/01/04 02:10:21;;;;;;;8.88;6.57;;;;;;;9.13;61.37;99340.09;5011596;28;20422;-86
2022/01/04 02:12:47;;;;;;;9.07;5.97;;;;;;;9.36;61.34;99377.00;5010903;28;20021;-86
2022/01/04 02:15:19;;;;;;;10.57;6.18;;;;;;;7.91;61.56;99153.81;5011523;28;20026;-86
2022/01/04 02:17:44;;;;;;;9.27;6.13;;;;;;;8.48;61.69;99263.25;5011493;28;20036;-86
2022/01/04 02:20:11;;;;;;;7.95;5.97;;;;;;;7.98;62.25;99212.59;5011244;28;20030;-86
2022/01/04 02:22:37;;;;;;;7.20;5.95;;;;;;;9.10;61.93;99387.03;5011244;28;20040;-85
2022/01/04 02:25:04;;;;;;;8.50;6.80;;;;;;;8.33;61.88;99257.03;5011366;28;20017;-82
2022/01/04 02:27:33;;;;;;;11.63;7.07;;;;;;;8.91;62.10;99369.81;5011341;28;20077;-81
2022/01/04 02:29:59;;;;;;;8.63;6.50;;;;;;;8.25;62.34;99266.59;5011604;28;20021;-82
2022/01/04 02:32:25;;;;;;;9.57;6.72;;;;;;;8.04;62.65;99250.53;5011239;28;20104;-81
2022/01/04 02:34:51;;;;;;;10.27;6.90;;;;;;;8.91;62.85;99398.78;5011152;28;20030;-82
2022/01/04 02:37:25;;;;;;;8.82;6.65;;;;;;;8.34;63.03;99306.88;5011268;28;20037;-82
2022/01/04 02:39:52;;;;;;;10.40;7.60;;;;;;;8.83;62.82;99398.81;5011448;28;20120;-82
2022/01/04 02:42:18;;;;;;;9.73;7.35;;;;;;;8.78;62.96;99423.00;4993631;28;20466;-82
2022/01/04 02:44:44;;;;;;;10.30;7.20;;;;;;;8.75;63.08;99417.25;5011354;28;20026;-81
2022/01/04 02:47:09;;;;;;;11.27;8.02;;;;;;;8.36;63.58;99360.13;5011198;28;20092;-82
2022/01/04 02:49:35;;;;;;;10.10;7.30;;;;;;;8.19;63.68;99342.72;5011135;28;20030;-82
2022/01/04 02:52:01;;;;;;;9.40;7.50;;;;;;;8.16;63.74;99350.91;5011143;28;20400;-82
2022/01/04 02:54:26;;;;;;;10.80;8.10;;;;;;;7.72;63.67;99290.84;4993435;28;20503;-82
2022/01/04 02:56:52;;;;;;;10.32;7.90;;;;;;;8.46;63.83;99405.50;5011143;28;20022;-82
2022/01/04 02:59:17;;;;;;;11.32;7.93;;;;;;;8.10;63.71;99357.66;4993479;28;20030;-81
2022/01/04 03:01:43;;;;;;;10.20;8.20;;;;;;;8.54;63.67;99428.34;5011226;28;20025;-82
2022/01/04 03:04:09;;;;;;;9.93;8.13;;;;;;;8.53;63.71;99438.03;4993301;28;20434;-82
2022/01/04 03:06:35;;;;;;;10.82;7.22;;;;;;;8.18;63.91;99391.88;5010946;28;20030;-82
2022/01/04 03:09:02;;;;;;;10.82;7.75;;;;;;;8.54;63.94;99426.53;5010880;28;20140;-82
2022/01/04 03:11:27;;;;;;;9.45;8.32;;;;;;;7.25;63.91;99210.09;5010901;28;20033;-82
2022/01/04 03:13:53;;;;;;;13.18;7.75;;;;;;;7.53;63.50;99281.50;5010994;28;20026;-82
2022/01/04 03:16:18;;;;;;;11.82;7.63;;;;;;;7.51;63.68;99280.03;5011022;28;20026;-82
2022/01/04 03:21:44;;;;;;;10.10;7.85;;;;;;;7.69;63.93;99303.50;4988318;28;20046;-82
2022/01/04 03:24:13;;;;;;;16.42;10.45;;;;;;;8.38;63.73;99429.19;5012839;28;20037;-82
2022/01/04 03:26:38;;;;;;;20.98;11.98;;;;;;;7.49;63.52;99306.47;4996822;28;20041;-81
2022/01/04 03:29:06;;;;;;;19.58;12.35;;;;;;;8.03;63.45;99372.47;5014212;28;20025;-82
2022/01/04 03:31:32;;;;;;;22.45;14.43;;;;;;;8.35;63.78;99440.03;5014301;28;20037;-82
2022/01/04 03:33:58;;;;;;;17.75;11.95;;;;;;;7.55;63.45;99313.69;5013972;28;20021;-83
2022/01/04 03:36:24;;;;;;;18.55;12.15;;;;;;;7.95;63.34;99391.69;4996335;28;20030;-82
2022/01/04 03:38:54;;;;;;;17.65;11.52;;;;;;;8.01;63.54;99384.97;5014031;28;20503;-82
2022/01/04 03:41:21;;;;;;;19.25;11.60;;;;;;;7.60;63.66;99348.16;5014163;28;20109;-81
2022/01/04 03:43:47;;;;;;;16.35;11.57;;;;;;;7.42;63.59;99317.75;5014061;28;20025;-82
2022/01/04 03:46:13;;;;;;;22.50;12.18;;;;;;;7.17;63.45;99307.22;4996235;28;20121;-83
2022/01/04 03:48:39;;;;;;;18.85;10.52;;;;;;;7.82;63.34;99369.53;5013810;28;20109;-81
2022/01/04 03:51:06;;;;;;;17.42;11.07;;;;;;;7.16;63.15;99273.25;5013893;28;20029;-81
2022/01/04 03:53:32;;;;;;;15.75;10.85;;;;;;;7.73;63.69;99370.50;5013923;28;20034;-81
2022/01/04 03:55:57;;;;;;;15.70;10.00;;;;;;;7.07;63.60;99268.97;5013648;28;20469;-82
2022/01/04 03:58:23;;;;;;;17.42;10.77;;;;;;;7.68;63.74;99372.81;4996082;28;20025;-81
2022/01/04 04:00:50;;;;;;;18.95;11.45;;;;;;;6.96;63.15;99251.75;5013727;28;20034;-83
2022/01/04 04:03:16;;;;;;;20.63;12.13;;;;;;;6.60;63.29;99188.19;5013825;28;20030;-81
2022/01/04 04:05:41;;;;;;;13.50;11.27;;;;;;;8.09;63.59;99434.09;5013732;28;20022;-82
2022/01/04 04:08:07;;;;;;;16.70;12.40;;;;;;;7.45;63.30;99344.53;5013398;28;20040;-82
2022/01/04 04:10:33;;;;;;;21.63;13.57;;;;;;;7.82;63.66;99401.06;5013417;28;20495;-82
2022/01/04 04:12:58;;;;;;;19.63;13.18;;;;;;;7.75;63.99;99410.59;5013443;28;20053;-82
2022/01/04 04:15:23;;;;;;;20.23;12.98;;;;;;;6.79;63.89;99240.41;5013328;28;20117;-82
2022/01/04 04:17:49;;;;;;;20.77;13.95;;;;;;;6.93;64.01;99273.06;4995793;28;20053;-82
2022/01/04 04:20:15;;;;;;;24.10;15.65;;;;;;;8.08;63.73;99474.50;4995887;28;20109;-83
2022/01/04 04:22:40;;;;;;;19.40;13.50;;;;;;;7.35;64.02;99388.50;5013385;28;20022;-81
2022/01/04 04:25:06;;;;;;;20.02;15.38;;;;;;;8.06;64.00;99479.94;5013305;28;20529;-82
2022/01/04 04:27:32;;;;;;;23.55;17.17;;;;;;;7.94;64.20;99468.09;4995762;28;20026;-81
2022/01/04 04:29:58;;;;;;;22.00;16.90;;;;;;;7.29;63.74;99383.88;5013202;28;20052;-82
2022/01/04 04:32:24;;;;;;;27.70;20.13;;;;;;;7.99;63.91;99492.09;5013360;28;20030;-83
2022/01/04 04:34:49;;;;;;;18.90;15.77;;;;;;;7.21;63.62;99373.38;5012414;28;20026;-81
2022/01/04 04:37:14;;;;;;;22.88;16.90;;;;;;;7.13;63.63;99374.16;5012856;28;20030;-81
2022/01/04 04:39:40;;;;;;;21.05;15.95;;;;;;;7.61;64.10;99449.66;5012884;28;20029;-83
2022/01/04 04:42:06;;;;;;;20.10;14.80;;;;;;;7.82;63.76;99485.16;5012773;28;20030;-81
2022/01/04 04:44:31;;;;;;;21.52;16.33;;;;;;;7.93;63.99;99508.50;5012787;28;20087;-80
2022/01/04 04:46:57;;;;;;;21.00;16.02;;;;;;;7.61;63.89;99475.94;5012877;28;20026;-82
2022/01/04 04:49:23;;;;;;;20.58;16.88;;;;;;;7.33;63.88;99425.44;5012828;28;20030;-82
2022/01/04 04:51:48;;;;;;;19.88;15.00;;;;;;;7.68;64.30;99477.91;5012781;28;20495;-81
2022/01/04 04:54:14;;;;;;;19.85;14.68;;;;;;;7.12;64.13;99426.84;5012657;28;20429;-82
2022/01/04 04:56:39;;;;;;;21.60;16.45;;;;;;;7.79;64.18;99517.03;5012679;28;20066;-82
2022/01/04 04:59:06;;;;;;;19.20;15.27;;;;;;;7.77;64.78;99497.97;5012570;28;20083;-82
2022/01/04 05:01:31;;;;;;;19.98;15.60;;;;;;;6.87;64.16;99350.63;5012418;28;20022;-82
2022/01/04 05:03:57;;;;;;;22.98;16.25;;;;;;;7.34;64.31;99428.88;5012317;28;20040;-82
2022/01/04 05:06:22;;;;;;;22.08;17.95;;;;;;;5.20;64.19;99095.22;5012358;28;20022;-82
2022/01/04 05:08:48;;;;;;;20.88;17.40;;;;;;;7.62;64.64;99516.97;5012350;28;20033;-83
2022/01/04 05:11:13;;;;;;;23.08;17.30;;;;;;;7.34;64.78;99457.75;5012271;28;20029;-82
2022/01/04 05:13:38;;;;;;;23.73;17.05;;;;;;;6.64;64.63;99370.53;5012283;28;20112;-83
2022/01/04 05:16:04;;;;;;;23.85;18.25;;;;;;;6.19;64.78;99279.84;5012019;28;20021;-83
2022/01/04 05:18:29;;;;;;;27.23;21.00;;;;;;;7.10;64.72;99445.38;5012237;28;20101;-82
2022/01/04 05:20:55;;;;;;;23.65;19.20;;;;;;;6.57;64.71;99359.00;5012389;28;20064;-81
2022/01/04 05:23:20;;;;;;;24.13;19.48;;;;;;;7.30;65.49;99504.53;5012034;28;20513;-81
2022/01/04 05:25:46;;;;;;;27.80;18.77;;;;;;;6.46;64.89;99354.03;5011896;28;20021;-85
2022/01/04 05:28:11;;;;;;;25.88;20.48;;;;;;;7.11;65.09;99464.56;4994367;28;20442;-83
2022/01/04 05:30:37;;;;;;;25.25;18.90;;;;;;;6.46;65.21;99375.03;5012140;28;20100;-82
2022/01/04 05:33:02;;;;;;;26.08;19.17;;;;;;;6.52;65.27;99374.41;5012051;28;20096;-85
2022/01/04 05:35:28;;;;;;;26.02;17.23;;;;;;;6.69;65.30;99424.19;5011876;28;20422;-84
2022/01/04 05:37:54;;;;;;;29.50;20.92;;;;;;;6.58;65.68;99415.75;5011967;28;20025;-85
2022/01/04 05:40:19;;;;;;;30.70;22.10;;;;;;;7.15;65.64;99527.13;5011749;28;20030;-84
2022/01/04 05:42:44;;;;;;;34.10;25.02;;;;;;;6.15;65.70;99375.50;5011959;28;20095;-82
2022/01/04 05:45:10;;;;;;;39.35;28.27;;;;;;;7.21;65.53;99537.00;5011786;28;20018;-85
2022/01/04 05:47:35;;;;;;;43.72;29.55;;;;;;;5.91;65.72;99331.56;5010925;28;20507;-85
2022/01/04 05:50:01;;;;;;;48.38;35.65;;;;;;;7.29;66.02;99544.09;5011691;28;20057;-85
2022/01/04 05:52:27;;;;;;;52.67;35.90;;;;;;;7.29;65.34;99541.47;5011686;28;20458;-83
2022/01/04 05:54:52;;;;;;;50.22;37.03;;;;;;;6.85;66.02;99475.09;5011468;28;20044;-85
2022/01/04 05:57:18;;;;;;;82.55;60.72;;;;;;;6.76;65.46;99463.75;4993901;28;20034;-85
2022/01/04 05:59:43;;;;;;;77.28;56.08;;;;;;;7.22;65.45;99549.13;4993836;28;20087;-85
2022/01/04 06:02:09;;;;;;;73.25;54.63;;;;;;;6.50;66.24;99432.25;4993840;28;20034;-84
2022/01/04 06:04:34;;;;;;;88.70;61.45;;;;;;;7.09;66.39;99545.28;5011406;28;20033;-84
2022/01/04 06:07:00;;;;;;;68.00;44.80;;;;;;;6.89;66.13;99505.31;5011459;28;20026;-83
2022/01/04 06:09:27;;;;;;;56.78;39.63;;;;;;;7.23;65.92;99555.22;5011397;28;20418;-85
2022/01/04 06:17:04;;;;;;;55.60;38.78;;;;;;;7.27;65.88;99564.44;5014396;28;20049;-83
2022/01/04 06:19:30;;;;;;;66.38;45.65;;;;;;;7.32;65.83;99555.09;5011147;28;20022;-85
2022/01/04 06:21:55;;;;;;;67.43;48.03;;;;;;;5.85;65.78;99313.00;4994637;28;20507;-81
2022/01/04 06:24:20;;;;;;;68.43;48.33;;;;;;;7.10;65.51;99533.81;5011398;28;20030;-82
2022/01/04 06:26:46;;;;;;;62.55;43.90;;;;;;;7.45;65.21;99570.44;5026453;28;20030;-82
2022/01/04 06:29:11;;;;;;;62.13;45.20;;;;;;;7.27;65.51;99527.66;5013336;28;20022;-79
2022/01/04 06:31:39;;;;;;;60.13;43.28;;;;;;;6.50;65.10;99402.56;5011506;28;20048;-80
2022/01/04 06:34:05;;;;;;;64.28;46.45;;;;;;;6.67;65.10;99434.00;5030699;28;20530;-80
2022/01/04 06:36:30;;;;;;;68.03;48.38;;;;;;;7.29;65.25;99521.28;5009570;28;20025;-79
2022/01/04 06:38:56;;;;;;;64.85;49.95;;;;;;;7.59;65.62;99556.72;5011270;28;20068;-81
2022/01/04 06:41:21;;;;;;;74.28;52.05;;;;;;;6.88;64.92;99438.88;5011161;28;20120;-80
2022/01/04 06:43:47;;;;;;;78.82;54.67;;;;;;;7.41;64.95;99527.06;5011354;28;20022;-83
2022/01/04 06:46:13;;;;;;;75.32;54.35;;;;;;;6.92;65.04;99463.00;5019263;28;20028;-80
2022/01/04 06:48:40;;;;;;;82.70;60.00;;;;;;;7.46;65.20;99545.00;5011312;28;20030;-80
2022/01/04 06:51:05;;;;;;;110.93;76.97;;;;;;;7.57;65.60;99560.50;5010909;28;20065;-79
2022/01/04 06:53:31;;;;;;;105.72;74.25;;;;;;;6.83;65.24;99446.41;5010836;28;20065;-80
2022/01/04 06:55:56;;;;;;;104.30;74.22;;;;;;;7.33;65.58;99527.03;4991474;28;20163;-82
2022/01/04 06:58:21;;;;;;;140.48;96.05;;;;;;;6.72;65.03;99430.94;5010107;28;20059;-81
2022/01/04 07:00:47;;;;;;;139.30;100.65;;;;;;;7.70;65.23;99591.56;5017435;28;20062;-81
2022/01/04 07:03:13;;;;;;;141.27;96.45;;;;;;;7.09;65.16;99535.63;5013451;28;20026;-82
2022/01/04 07:05:38;;;;;;;134.43;95.05;;;;;;;7.60;64.79;99568.06;5016838;28;20033;-82
2022/01/04 07:08:04;;;;;;;120.80;85.85;;;;;;;7.72;65.07;99598.31;5014028;28;20037;-79
2022/01/04 07:10:30;;;;;;;118.32;80.28;;;;;;;6.75;64.77;99464.72;5020120;28;20025;-79
2022/01/04 07:12:55;;;;;;;126.40;90.40;;;;;;;7.25;65.00;99540.13;5014852;28;20100;-82
2022/01/04 07:15:21;;;;;;;125.55;87.80;;;;;;;6.78;64.99;99466.22;4998798;28;20113;-82
2022/01/04 07:17:46;;;;;;;129.70;88.70;;;;;;;7.38;64.48;99561.53;5011956;28;20051;-81
2022/01/04 07:20:12;;;;;;;126.95;91.13;;;;;;;7.69;64.51;99622.28;5012824;28;20025;-79
2022/01/04 07:22:37;;;;;;;133.27;93.55;;;;;;;7.71;64.05;99601.94;5012643;28;20041;-81
2022/01/04 07:25:04;;;;;;;119.60;86.43;;;;;;;7.70;64.36;99600.28;5016557;28;20112;-79
2022/01/04 07:27:30;;;;;;;120.85;87.68;;;;;;;6.12;64.65;99341.72;5015768;28;20441;-79
2022/01/04 07:29:55;;;;;;;126.47;87.30;;;;;;;7.65;63.98;99578.91;5013088;28;20081;-80
2022/01/04 07:32:20;;;;;;;123.68;84.60;;;;;;;7.45;64.49;99544.19;5012540;28;20068;-80
2022/01/04 07:34:46;;;;;;;119.50;86.03;;;;;;;6.46;63.92;99377.63;5012948;28;20510;-82
2022/01/04 07:37:11;;;;;;;118.78;83.97;;;;;;;6.19;64.38;99323.56;5009214;28;20034;-83
2022/01/04 07:39:37;;;;;;;112.78;81.18;;;;;;;7.25;64.26;99483.16;4989751;28;20038;-81
2022/01/04 07:42:02;;;;;;;117.72;81.85;;;;;;;7.91;64.28;99592.81;4982183;28;20042;-82
2022/01/04 07:44:28;;;;;;;110.38;76.70;;;;;;;7.47;63.57;99518.56;5017265;28;20018;-81
2022/01/04 07:46:53;;;;;;;109.68;77.78;;;;;;;7.90;63.46;99596.41;5013467;28;20091;-82
2022/01/04 07:49:19;;;;;;;108.25;76.65;;;;;;;7.78;63.02;99584.53;5011741;28;20410;-79
2022/01/04 07:51:45;;;;;;;111.43;80.50;;;;;;;7.28;63.66;99508.28;5018847;28;20486;-82
2022/01/04 07:54:10;;;;;;;116.15;82.82;;;;;;;7.52;64.04;99536.50;5020055;28;20036;-80
2022/01/04 07:56:36;;;;;;;126.00;87.38;;;;;;;7.58;63.45;99552.44;5016333;28;20030;-80
2022/01/04 07:59:03;;;;;;;144.90;97.90;;;;;;;6.57;63.43;99386.06;5013437;28;20032;-82
2022/01/04 08:01:29;;;;;;;149.65;105.10;;;;;;;7.95;63.35;99582.78;5012331;28;20520;-81
2022/01/04 08:03:54;;;;;;;132.38;92.88;;;;;;;6.73;63.54;99395.84;5021492;28;20112;-80
2022/01/04 08:06:19;;;;;;;134.40;91.75;;;;;;;6.49;63.62;99336.19;5019619;28;20034;-79
2022/01/04 08:08:45;;;;;;;128.40;89.82;;;;;;;6.69;63.46;99361.22;5029639;28;20037;-79
2022/01/04 08:11:10;;;;;;;128.25;89.45;;;;;;;8.08;63.56;99596.28;4994462;28;20052;-79
2022/01/04 08:13:36;;;;;;;134.50;96.90;;;;;;;7.82;63.76;99528.03;5013089;28;20029;-80
2022/01/04 08:16:02;;;;;;;123.65;90.00;;;;;;;8.25;64.20;99579.59;5019256;28;20506;-81
2022/01/04 08:18:27;;;;;;;128.95;93.80;;;;;;;8.16;63.93;99548.97;5011795;28;20042;-80
2022/01/04 08:20:57;;;;;;;117.50;87.63;;;;;;;7.70;63.65;99465.44;5014024;28;20026;-80
2022/01/04 08:23:23;;;;;;;120.13;91.07;;;;;;;8.08;63.64;99506.06;5017794;28;20565;-86
2022/01/04 08:25:49;;;;;;;119.43;88.90;;;;;;;8.23;63.92;99515.81;5008012;28;20065;-85
2022/01/04 08:28:14;;;;;;;99.60;72.18;;;;;;;8.22;64.35;99500.19;5009690;28;20034;-87
2022/01/04 08:30:41;;;;;;;92.90;67.13;;;;;;;8.44;64.11;99527.69;5009116;28;20018;-85
2022/01/04 08:33:06;;;;;;;77.88;55.70;;;;;;;8.65;64.60;99553.50;5010130;28;20030;-86
2022/01/04 08:35:32;;;;;;;72.53;56.20;;;;;;;8.09;64.84;99465.63;5008122;28;20038;-86
2022/01/04 08:37:57;;;;;;;74.57;53.95;;;;;;;8.58;64.81;99556.78;5009769;28;20024;-87
2022/01/04 08:40:23;;;;;;;71.80;52.13;;;;;;;7.61;65.00;99370.81;5009136;28;20109;-86
2022/01/04 08:42:48;;;;;;;78.20;56.75;;;;;;;8.82;65.25;99545.41;4993426;28;20025;-87
2022/01/04 08:45:15;;;;;;;56.08;41.00;;;;;;;8.55;65.30;99509.75;5010510;28;20025;-87
2022/01/04 08:47:40;;;;;;;43.15;32.20;;;;;;;8.24;65.29;99464.84;5009981;28;20117;-89
2022/01/04 08:50:10;;;;;;;29.48;21.60;;;;;;;8.97;65.08;99544.75;5011990;28;20026;-88
2022/01/04 08:52:35;;;;;;;25.20;18.85;;;;;;;7.68;65.40;99339.47;4990467;28;20419;-86
2022/01/04 08:55:01;;;;;;;33.25;24.88;;;;;;;8.02;65.51;99370.00;4993442;28;20034;-86
2022/01/04 08:57:27;;;;;;;22.27;16.77;;;;;;;7.29;65.02;99247.34;5011319;28;20033;-86
2022/01/04 08:59:54;;;;;;;25.13;19.85;;;;;;;8.77;65.10;99476.66;5011602;28;20099;-86
2022/01/04 09:02:21;;;;;;;20.73;15.43;;;;;;;9.27;64.95;99540.56;5011488;28;20029;-87
2022/01/04 09:04:46;;;;;;;19.10;14.00;;;;;;;8.50;65.13;99401.53;5010932;28;20512;-87
2022/01/04 09:07:13;;;;;;;15.43;12.80;;;;;;;8.90;65.11;99463.78;5009299;28;20053;-87
2022/01/04 09:09:39;;;;;;;21.27;15.25;;;;;;;9.04;64.91;99470.19;5007467;28;20530;-87
2022/01/04 09:12:04;;;;;;;17.77;14.60;;;;;;;8.96;65.42;99458.84;5010979;28;20030;-87
2022/01/04 09:14:42;;;;;;;19.10;14.57;;;;;;;9.08;64.84;99460.13;5015009;28;20038;-88
2022/01/04 09:19:55;;;;;;;16.38;12.75;;;;;;;9.24;65.06;99471.41;5011533;28;20045;-86
2022/01/04 09:22:20;;;;;;;13.75;11.48;;;;;;;9.64;65.14;99561.00;5010522;28;20026;-87
2022/01/04 09:24:46;;;;;;;13.98;10.75;;;;;;;9.68;65.08;99520.97;5008186;28;20104;-80
2022/01/04 09:27:12;;;;;;;15.55;12.00;;;;;;;8.66;64.75;99358.56;4997617;28;20465;-80
2022/01/04 09:29:37;;;;;;;10.65;8.27;;;;;;;9.74;63.83;99498.38;5011531;28;20032;-82
2022/01/04 09:32:04;;;;;;;11.70;9.07;;;;;;;9.85;64.07;99512.00;5010522;28;20025;-80
2022/01/04 09:34:30;;;;;;;15.77;13.65;;;;;;;8.62;64.00;99307.25;5010600;28;20018;-83
2022/01/04 09:36:55;;;;;;;15.15;13.27;;;;;;;8.83;63.91;99336.44;5009279;28;20526;-81
2022/01/04 09:39:23;;;;;;;14.20;10.15;;;;;;;10.01;63.68;99504.97;5008875;28;20022;-80
2022/01/04 09:41:52;;;;;;;14.77;10.52;;;;;;;9.68;64.03;99448.97;5000821;28;20496;-82
2022/01/04 09:44:17;;;;;;;15.32;11.70;;;;;;;9.63;64.09;99425.75;5008002;28;20499;-82
2022/01/04 09:46:43;;;;;;;14.40;11.02;;;;;;;10.01;64.32;99486.50;5010489;28;20030;-83
2022/01/04 09:49:10;;;;;;;14.23;10.82;;;;;;;10.22;64.16;99493.81;5009756;28;20033;-81
2022/01/04 09:51:39;;;;;;;13.35;10.43;;;;;;;9.02;63.58;99311.53;5010517;28;20036;-82
2022/01/04 09:54:04;;;;;;;12.15;10.70;;;;;;;9.52;63.89;99347.09;4991700;28;20484;-80
2022/01/04 09:56:30;;;;;;;15.70;12.02;;;;;;;9.61;63.90;99345.22;4994497;28;20030;-80
2022/01/04 09:58:55;;;;;;;12.30;9.82;;;;;;;9.82;63.51;99358.59;5009384;28;20037;-80
2022/01/04 10:01:26;;;;;;;12.98;10.75;;;;;;;9.36;63.51;99276.06;5011059;28;20438;-81
2022/01/04 10:03:52;;;;;;;9.80;8.80;;;;;;;10.12;63.50;99397.22;5009442;28;20061;-81
2022/01/04 10:06:18;;;;;;;11.45;9.80;;;;;;;10.39;63.54;99395.03;5010754;28;20060;-80
2022/01/04 10:09:00;;;;;;;12.60;9.30;;;;;;;10.90;63.38;99458.53;5009676;28;20026;-80
2022/01/04 10:11:43;;;;;;;9.82;8.73;;;;;;;10.69;63.01;99409.91;5006654;28;20053;-80
2022/01/04 10:14:25;;;;;;;14.18;9.65;;;;;;;11.01;63.18;99447.50;5010772;28;20388;-81
2022/01/04 10:16:56;;;;;;;13.38;9.40;;;;;;;11.07;63.19;99431.75;5010835;28;20046;-82
2022/01/04 10:19:43;;;;;;;13.00;10.68;;;;;;;11.14;62.60;99432.66;4992725;28;20038;-80
2022/01/04 10:22:18;;;;;;;14.40;10.25;;;;;;;10.67;62.09;99334.50;5009211;28;20038;-81
2022/01/04 10:25:09;;;;;;;9.20;8.05;;;;;;;10.97;62.18;99348.50;5002510;28;20038;-87
2022/01/04 10:27:37;;;;;;;12.25;10.18;;;;;;;11.64;61.84;99411.69;4987931;28;20148;-85
2022/01/04 10:30:28;;;;;;;11.00;8.88;;;;;;;11.82;61.27;99401.50;5005564;28;20029;-85
2022/01/04 10:33:11;;;;;;;12.18;9.30;;;;;;;11.95;60.88;99436.06;4995825;28;20034;-86
2022/01/04 10:35:44;;;;;;;12.13;9.90;;;;;;;11.65;60.19;99321.56;5010474;28;20029;-86
2022/01/04 10:38:33;;;;;;;15.32;12.95;;;;;;;12.23;59.98;99392.94;5009356;28;20030;-86
2022/01/04 10:41:06;;;;;;;21.63;16.30;;;;;;;12.32;59.51;99395.22;5004032;28;20025;-86
2022/01/04 10:43:37;;;;;;;23.52;17.58;;;;;;;11.80;58.83;99273.09;5012459;28;20036;-86
2022/01/04 10:46:04;;;;;;;22.33;16.33;;;;;;;11.95;58.18;99269.38;5006906;28;20022;-86
2022/01/04 10:48:36;;;;;;;13.57;11.30;;;;;;;12.02;58.37;99266.75;5012496;28;20033;-86
2022/01/04 10:51:06;;;;;;;16.65;13.68;;;;;;;12.78;58.16;99378.84;5010139;28;20033;-86
2022/01/04 10:53:37;;;;;;;16.60;12.25;;;;;;;12.72;58.09;99361.91;5009935;28;20037;-86
2022/01/04 10:56:14;;;;;;;20.00;16.13;;;;;;;12.53;58.43;99341.38;5010880;28;20026;-85
2022/01/04 10:58:40;;;;;;;21.50;15.63;;;;;;;12.54;58.43;99327.13;5010762;28;20045;-85
2022/01/04 11:01:10;;;;;;;15.05;10.68;;;;;;;12.37;58.87;99304.63;4991165;28;20033;-86
2022/01/04 11:03:41;;;;;;;12.65;11.27;;;;;;;12.54;58.46;99339.56;4996409;28;20021;-85
2022/01/04 11:06:15;;;;;;;14.57;11.18;;;;;;;11.41;58.05;99106.03;5012451;28;20033;-85
2022/01/04 11:08:42;;;;;;;13.95;11.35;;;;;;;12.07;58.52;99230.78;5033535;28;20430;-85
2022/01/04 11:11:08;;;;;;;11.15;8.77;;;;;;;11.94;58.43;99159.25;4994250;28;20025;-86
2022/01/04 11:13:34;;;;;;;10.88;8.52;;;;;;;12.17;58.16;99189.91;4992555;28;20026;-86
2022/01/04 11:16:04;;;;;;;14.85;9.70;;;;;;;12.08;58.16;99186.59;5014249;28;20061;-85
2022/01/04 11:18:30;;;;;;;10.27;7.93;;;;;;;12.36;58.11;99239.47;5012300;28;20037;-85
2022/01/04 11:20:57;;;;;;;10.52;8.10;;;;;;;13.03;57.90;99313.72;5012090;28;20410;-86
2022/01/04 11:23:25;;;;;;;14.57;11.75;;;;;;;13.01;58.07;99331.66;5009883;28;20042;-87
2022/01/04 11:25:51;;;;;;;10.98;9.48;;;;;;;12.31;57.78;99181.81;5009112;28;20026;-88
2022/01/04 11:28:16;;;;;;;11.15;9.13;;;;;;;12.76;57.53;99252.88;5013736;28;20095;-88
2022/01/04 11:30:58;;;;;;;12.82;10.25;;;;;;;13.25;56.84;99273.81;5011913;28;20038;-88
2022/01/04 11:33:27;;;;;;;8.70;5.70;;;;;;;13.18;56.07;99251.78;5011334;28;20426;-85
2022/01/04 11:35:55;;;;;;;12.65;8.43;;;;;;;13.45;55.88;99284.47;5008883;28;20037;-85